createdAt,value
2022-09-03T00:04:08.567Z,12.9
2022-09-03T00:09:08.621Z,12.8
2022-09-03T00:14:08.592Z,12.6
2022-09-03T00:19:11.277Z,12.6
2022-09-03T00:24:12.833Z,12.5
2022-09-03T00:29:08.700Z,12.4
2022-09-03T00:34:08.579Z,12.4
2022-09-03T00:39:08.531Z,12.4
2022-09-03T00:44:08.838Z,12.3
2022-09-03T00:49:08.561Z,12.2
2022-09-03T00:54:08.530Z,12.1
2022-09-03T00:59:08.612Z,12
2022-09-03T01:04:08.571Z,12.1
2022-09-03T01:09:08.587Z,12.1
2022-09-03T01:14:08.612Z,12
2022-09-03T01:19:08.821Z,11.9
2022-09-03T01:24:08.594Z,11.9
2022-09-03T01:29:08.584Z,11.7
2022-09-03T01:34:08.661Z,11.4
2022-09-03T01:39:08.597Z,11.2
2022-09-03T01:44:08.572Z,11.1
2022-09-03T01:49:08.620Z,11
2022-09-03T01:54:10.848Z,11
2022-09-03T01:59:08.620Z,10.8
2022-09-03T02:04:08.621Z,10.8
2022-09-03T02:09:08.587Z,10.8
2022-09-03T02:14:08.642Z,10.6
2022-09-03T02:19:08.623Z,10.6
2022-09-03T02:24:08.601Z,10.4
2022-09-03T02:29:08.587Z,10.4
2022-09-03T02:34:08.645Z,10.3
2022-09-03T02:39:08.546Z,10.3
2022-09-03T02:44:08.584Z,10.3
2022-09-03T02:49:08.571Z,10.2
2022-09-03T02:54:08.641Z,10.2
2022-09-03T02:59:08.622Z,10.2
2022-09-03T03:04:08.625Z,10.1
2022-09-03T03:09:08.672Z,10.1
2022-09-03T03:14:09.203Z,10.1
2022-09-03T03:19:08.614Z,10.1
2022-09-03T03:24:08.613Z,10
2022-09-03T03:29:08.680Z,10
2022-09-03T03:34:09.315Z,9.9
2022-09-03T03:39:11.246Z,9.9
2022-09-03T03:44:08.635Z,9.9
2022-09-03T03:49:08.595Z,9.8
2022-09-03T03:54:08.641Z,9.6
2022-09-03T03:59:08.650Z,9.6
2022-09-03T04:04:08.614Z,9.6
2022-09-03T04:09:09.761Z,9.6
2022-09-03T04:14:08.611Z,9.8
2022-09-03T04:19:09.476Z,9.8
2022-09-03T04:24:08.846Z,10
2022-09-03T04:29:08.686Z,10
2022-09-03T04:34:08.655Z,10.1
2022-09-03T04:39:08.668Z,10.2
2022-09-03T04:44:08.658Z,10.3
2022-09-03T04:49:08.644Z,10.3
2022-09-03T04:54:08.648Z,10.1
2022-09-03T04:59:09.056Z,9.9
2022-09-03T05:04:09.560Z,9.9
2022-09-03T05:09:08.595Z,10
2022-09-03T05:14:08.691Z,10.1
2022-09-03T05:19:08.621Z,10.3
2022-09-03T05:24:08.639Z,10.4
2022-09-03T05:29:09.147Z,10.4
2022-09-03T05:34:08.947Z,10.6
2022-09-03T05:39:08.692Z,10.7
2022-09-03T05:44:08.764Z,10.7
2022-09-03T05:49:08.680Z,10.6
2022-09-03T05:54:08.900Z,10.8
2022-09-03T05:59:08.659Z,11.3
2022-09-03T06:04:08.658Z,11.8
2022-09-03T06:09:08.717Z,12
2022-09-03T06:14:08.670Z,12.1
2022-09-03T06:19:08.693Z,12.3
2022-09-03T06:24:08.716Z,12.3
2022-09-03T06:29:09.523Z,12.4
2022-09-03T06:34:08.678Z,12.5
2022-09-03T06:39:08.709Z,12.9
2022-09-03T06:44:08.672Z,13.1
2022-09-03T06:49:08.730Z,13.4
2022-09-03T06:54:08.719Z,13.9
2022-09-03T06:59:09.579Z,14.1
2022-09-03T07:04:08.695Z,14.4
2022-09-03T07:09:08.779Z,14.9
2022-09-03T07:14:08.693Z,15.4
2022-09-03T07:19:08.680Z,15.9
2022-09-03T07:24:08.699Z,16.6
2022-09-03T07:29:08.705Z,16.9
2022-09-03T07:34:09.272Z,16.9
2022-09-03T07:39:08.740Z,17.1
2022-09-03T07:44:08.958Z,17.3
2022-09-03T07:49:09.160Z,17.3
2022-09-03T07:54:08.719Z,17.2
2022-09-03T07:59:08.721Z,17.6
2022-09-03T08:04:09.474Z,17.6
2022-09-03T08:09:08.671Z,17.6
2022-09-03T08:14:08.702Z,17.8
2022-09-03T08:19:08.904Z,18.1
2022-09-03T08:24:08.700Z,18.2
2022-09-03T08:29:08.733Z,18.4
2022-09-03T08:34:08.722Z,18.9
2022-09-03T08:39:08.749Z,18.8
2022-09-03T08:44:08.769Z,18.7
2022-09-03T08:49:08.666Z,18.9
2022-09-03T08:54:08.839Z,18.9
2022-09-03T08:59:08.729Z,19.4
2022-09-03T09:04:08.789Z,19.7
2022-09-03T09:09:08.710Z,20.3
2022-09-03T09:14:08.815Z,20.6
2022-09-03T09:19:08.712Z,20.5
2022-09-03T09:24:08.716Z,20.2
2022-09-03T09:29:08.844Z,20.3
2022-09-03T09:34:08.735Z,20.2
2022-09-03T09:39:08.681Z,21.1
2022-09-03T09:44:08.790Z,21.5
2022-09-03T09:49:08.768Z,21.2
2022-09-03T09:54:09.017Z,21.2
2022-09-03T09:59:08.812Z,21.4
2022-09-03T10:04:08.719Z,22.1
2022-09-03T10:09:08.755Z,22.4
2022-09-03T10:14:08.813Z,22.6
2022-09-03T10:19:08.762Z,22.1
2022-09-03T10:24:08.809Z,22.4
2022-09-03T10:29:10.213Z,22.8
2022-09-03T10:34:08.728Z,22.9
2022-09-03T10:39:08.755Z,23.3
2022-09-03T10:44:08.716Z,23.6
2022-09-03T10:49:08.859Z,22.8
2022-09-03T10:54:08.785Z,22.8
2022-09-03T10:59:08.750Z,23.3
2022-09-03T11:04:08.766Z,23.3
2022-09-03T11:09:08.795Z,23.6
2022-09-03T11:14:08.786Z,24.2
2022-09-03T11:19:08.721Z,24.1
2022-09-03T11:24:08.756Z,24.1
2022-09-03T11:29:08.801Z,24.5
2022-09-03T11:34:08.805Z,24.4
2022-09-03T11:39:08.739Z,25.3
2022-09-03T11:44:08.777Z,26.1
2022-09-03T11:49:08.787Z,26.5
2022-09-03T11:54:08.780Z,26.4
2022-09-03T11:59:08.770Z,27
2022-09-03T12:04:08.771Z,26.3
2022-09-03T12:09:13.287Z,26.1
2022-09-03T12:14:13.061Z,25.1
2022-09-03T12:19:10.205Z,26.2
2022-09-03T12:24:08.857Z,27.3
2022-09-03T12:29:09.419Z,28.1
2022-09-03T12:34:08.904Z,27.6
2022-09-03T12:39:11.772Z,26.1
2022-09-03T12:44:08.827Z,24.4
2022-09-03T12:49:31.299Z,23.6
2022-09-03T12:54:09.463Z,23.4
2022-09-03T12:59:08.822Z,22.9
2022-09-03T13:04:08.793Z,22.6
2022-09-03T13:09:08.787Z,22.3
2022-09-03T13:14:08.785Z,22.2
2022-09-03T13:19:08.802Z,22.2
2022-09-03T13:24:09.268Z,22.3
2022-09-03T13:29:08.893Z,22.2
2022-09-03T13:34:08.776Z,22.1
2022-09-03T13:39:08.858Z,21.9
2022-09-03T13:44:08.893Z,21.9
2022-09-03T13:49:08.825Z,21.9
2022-09-03T13:54:08.861Z,22
2022-09-03T13:59:08.820Z,21.9
2022-09-03T14:04:08.867Z,22.1
2022-09-03T14:09:09.239Z,22
2022-09-03T14:14:09.461Z,21.9
2022-09-03T14:19:08.842Z,21.9
2022-09-03T14:24:08.816Z,21.9
2022-09-03T14:29:08.849Z,22
2022-09-03T14:34:08.823Z,21.6
2022-09-03T14:39:09.296Z,21.4
2022-09-03T14:44:08.787Z,21.4
2022-09-03T14:49:08.827Z,21.4
2022-09-03T14:54:08.814Z,21.3
2022-09-03T14:59:08.856Z,21.2
2022-09-03T15:04:09.347Z,21.1
2022-09-03T15:09:08.897Z,21
2022-09-03T15:14:08.883Z,20.9
2022-09-03T15:19:08.826Z,20.9
2022-09-03T15:24:08.836Z,20.9
2022-09-03T15:29:08.852Z,20.9
2022-09-03T15:34:08.902Z,20.8
2022-09-03T15:39:08.859Z,20.7
2022-09-03T15:44:08.809Z,20.4
2022-09-03T15:49:08.919Z,20
2022-09-03T15:54:08.836Z,19
2022-09-03T15:59:08.847Z,18.3
2022-09-03T16:04:08.912Z,18.1
2022-09-03T16:09:09.303Z,18
2022-09-03T16:14:08.927Z,18.1
2022-09-03T16:19:08.919Z,17.9
2022-09-03T16:24:08.895Z,17.6
2022-09-03T16:29:09.141Z,17.5
2022-09-03T16:34:08.851Z,17.4
2022-09-03T16:39:08.932Z,17.4
2022-09-03T16:44:09.331Z,17.3
2022-09-03T16:49:08.847Z,17.2
2022-09-03T16:54:08.824Z,17.2
2022-09-03T16:59:08.949Z,17.1
2022-09-03T17:04:08.923Z,16.9
2022-09-03T17:09:08.873Z,16.8
2022-09-03T17:14:08.900Z,16.6
2022-09-03T17:19:08.929Z,16.7
2022-09-03T17:24:08.915Z,16.6
2022-09-03T17:29:08.913Z,16.7
2022-09-03T17:34:08.849Z,16.5
2022-09-03T17:39:08.840Z,16.4
2022-09-03T17:44:08.898Z,16.4
2022-09-03T17:49:08.838Z,16.4
2022-09-03T17:54:08.859Z,16.3
2022-09-03T17:59:08.942Z,16.2
2022-09-03T18:04:08.893Z,16.2
2022-09-03T18:09:08.907Z,16.2
2022-09-03T18:14:08.930Z,16.2
2022-09-03T18:19:09.011Z,16.3
2022-09-03T18:24:08.959Z,16.3
2022-09-03T18:29:08.869Z,16.3
2022-09-03T18:34:08.947Z,16.3
2022-09-03T18:39:08.899Z,16.2
2022-09-03T18:44:08.895Z,16.1
2022-09-03T18:49:08.911Z,16.1
2022-09-03T18:54:08.928Z,16
2022-09-03T18:59:08.913Z,15.9
2022-09-03T19:04:08.983Z,15.9
2022-09-03T19:09:08.952Z,15.9
2022-09-03T19:14:08.938Z,15.9
2022-09-03T19:19:11.995Z,15.9
2022-09-03T19:24:08.950Z,15.9
2022-09-03T19:29:08.891Z,15.8
2022-09-03T19:34:09.019Z,15.8
2022-09-03T19:39:08.950Z,15.7
2022-09-03T19:44:08.954Z,15.7
2022-09-03T19:49:09.023Z,15.7
2022-09-03T19:54:08.920Z,15.6
2022-09-03T19:59:08.928Z,15.7
2022-09-03T20:04:08.946Z,15.6
2022-09-03T20:09:08.962Z,15.7
2022-09-03T20:14:08.935Z,15.6
2022-09-03T20:19:08.914Z,15.4
2022-09-03T20:24:08.977Z,15.3
2022-09-03T20:29:08.960Z,15.3
2022-09-03T20:34:08.970Z,15.2
2022-09-03T20:39:09.000Z,15.2
2022-09-03T20:44:08.931Z,15.1
2022-09-03T20:49:08.940Z,15
2022-09-03T20:54:08.960Z,14.9
2022-09-03T20:59:09.179Z,14.8
2022-09-03T21:04:08.949Z,14.8
2022-09-03T21:09:10.300Z,14.7
2022-09-03T21:14:09.059Z,14.6
2022-09-03T21:19:08.929Z,14.6
2022-09-03T21:24:08.970Z,14.6
2022-09-03T21:29:09.003Z,14.6
2022-09-03T21:34:08.930Z,14.5
2022-09-03T21:39:09.030Z,14.5
2022-09-03T21:44:09.014Z,14.4
2022-09-03T21:49:09.067Z,14.4
2022-09-03T21:54:09.504Z,14.4
2022-09-03T21:59:09.503Z,14.3
2022-09-03T22:04:09.009Z,14.2
2022-09-03T22:09:08.974Z,14.2
2022-09-03T22:14:09.240Z,14.1
2022-09-03T22:19:09.039Z,14.3
2022-09-03T22:24:08.959Z,14.3
2022-09-03T22:29:08.966Z,14.3
2022-09-03T22:34:08.934Z,14.1
2022-09-03T22:39:09.044Z,14.1
2022-09-03T22:44:08.968Z,14.1
2022-09-03T22:49:09.117Z,14
2022-09-03T22:54:09.068Z,14
2022-09-03T22:59:09.027Z,14
2022-09-03T23:04:09.015Z,13.9
2022-09-03T23:09:09.005Z,13.8
2022-09-03T23:14:09.041Z,13.8
2022-09-03T23:19:09.051Z,13.8
2022-09-03T23:24:08.975Z,13.6
2022-09-03T23:29:08.996Z,13.7
2022-09-03T23:34:08.992Z,13.7
2022-09-03T23:39:09.228Z,13.7
2022-09-03T23:44:09.067Z,13.7
2022-09-03T23:49:08.964Z,13.6
2022-09-03T23:54:09.188Z,13.4
2022-09-03T23:59:09.054Z,13.3
